createdAt,value
2022-09-29T00:01:45.314Z,20.66
2022-09-29T00:04:10.864Z,20.67
2022-09-29T00:06:36.412Z,20.66
2022-09-29T00:09:01.963Z,20.67
2022-09-29T00:11:27.511Z,20.66
2022-09-29T00:13:53.750Z,20.66
2022-09-29T00:16:19.358Z,20.66
2022-09-29T00:18:45.070Z,20.65
2022-09-29T00:21:13.054Z,20.65
2022-09-29T00:23:38.651Z,20.64
2022-09-29T00:26:05.708Z,20.65
2022-09-29T00:28:31.596Z,20.65
2022-09-29T00:30:58.265Z,20.67
2022-09-29T00:33:23.822Z,20.65
2022-09-29T00:36:05.400Z,20.65
2022-09-29T00:38:30.940Z,20.65
2022-09-29T00:40:56.617Z,20.66
2022-09-29T00:43:24.215Z,20.64
2022-09-29T00:45:51.510Z,20.65
2022-09-29T00:48:18.705Z,20.65
2022-09-29T00:50:45.319Z,20.66
2022-09-29T00:53:11.509Z,20.64
2022-09-29T00:55:38.651Z,20.64
2022-09-29T00:58:06.092Z,20.65
2022-09-29T01:00:31.745Z,20.64
2022-09-29T01:03:01.828Z,20.64
2022-09-29T01:05:29.618Z,20.63
2022-09-29T01:07:55.168Z,20.64
2022-09-29T01:10:20.787Z,20.65
2022-09-29T01:12:46.420Z,20.64
2022-09-29T01:15:13.473Z,20.64
2022-09-29T01:17:39.019Z,20.64
2022-09-29T01:20:12.229Z,20.64
2022-09-29T01:22:57.662Z,20.64
2022-09-29T01:25:29.047Z,20.64
2022-09-29T01:30:51.371Z,20.64
2022-09-29T01:33:33.941Z,20.62
2022-09-29T01:36:04.537Z,20.63
2022-09-29T01:38:49.978Z,20.62
2022-09-29T01:41:17.713Z,20.64
2022-09-29T01:43:45.942Z,20.64
2022-09-29T01:46:14.784Z,20.64
2022-09-29T01:48:42.668Z,20.61
2022-09-29T01:51:09.198Z,20.61
2022-09-29T01:53:36.127Z,20.62
2022-09-29T01:56:02.962Z,20.62
2022-09-29T01:58:29.897Z,20.63
2022-09-29T02:00:56.456Z,20.62
2022-09-29T02:03:27.491Z,20.60
2022-09-29T02:05:56.837Z,20.62
2022-09-29T02:08:39.091Z,20.61
2022-09-29T02:11:08.525Z,20.61
2022-09-29T02:13:35.138Z,20.60
2022-09-29T02:16:00.731Z,20.62
2022-09-29T02:18:28.266Z,20.62
2022-09-29T02:20:53.879Z,20.62
2022-09-29T02:23:19.423Z,20.61
2022-09-29T02:25:45.971Z,20.61
2022-09-29T02:28:11.523Z,20.61
2022-09-29T02:30:37.061Z,20.61
2022-09-29T02:33:02.632Z,20.60
2022-09-29T02:35:28.978Z,20.59
2022-09-29T02:38:01.526Z,20.61
2022-09-29T02:40:47.723Z,20.60
2022-09-29T02:43:17.010Z,20.59
2022-09-29T02:46:02.541Z,20.60
2022-09-29T02:48:47.658Z,20.60
2022-09-29T02:51:17.272Z,20.61
2022-09-29T02:53:45.541Z,20.61
2022-09-29T02:56:22.424Z,20.60
2022-09-29T02:58:50.812Z,20.61
2022-09-29T03:01:16.531Z,20.61
2022-09-29T03:03:42.642Z,20.60
2022-09-29T03:06:08.483Z,20.60
2022-09-29T03:08:34.023Z,20.60
2022-09-29T03:10:59.566Z,20.59
2022-09-29T03:13:25.215Z,20.60
2022-09-29T03:15:50.817Z,20.60
2022-09-29T03:18:16.394Z,20.59
2022-09-29T03:20:41.943Z,20.60
2022-09-29T03:23:07.495Z,20.60
2022-09-29T03:25:33.030Z,20.59
2022-09-29T03:27:58.575Z,20.60
2022-09-29T03:30:24.177Z,20.60
2022-09-29T03:32:49.773Z,20.59
2022-09-29T03:35:15.313Z,20.60
2022-09-29T03:37:40.861Z,20.61
2022-09-29T03:40:06.969Z,20.61
2022-09-29T03:42:32.524Z,20.59
2022-09-29T03:44:58.074Z,20.60
2022-09-29T03:47:23.634Z,20.60
2022-09-29T03:49:49.178Z,20.59
2022-09-29T03:52:14.735Z,20.58
2022-09-29T03:54:40.276Z,20.59
2022-09-29T03:57:05.826Z,20.59
2022-09-29T03:59:31.368Z,20.58
2022-09-29T04:01:57.001Z,20.57
2022-09-29T04:04:22.564Z,20.59
2022-09-29T04:06:48.113Z,20.60
2022-09-29T04:09:13.729Z,20.59
2022-09-29T04:11:39.311Z,20.58
2022-09-29T04:14:04.914Z,20.58
2022-09-29T04:16:30.547Z,20.60
2022-09-29T04:18:56.148Z,20.59
2022-09-29T04:21:21.730Z,20.59
2022-09-29T04:23:47.695Z,20.57
2022-09-29T04:26:13.250Z,20.57
2022-09-29T04:28:38.956Z,20.57
2022-09-29T04:31:04.564Z,20.57
2022-09-29T04:33:30.464Z,20.57
2022-09-29T04:35:56.470Z,20.56
2022-09-29T04:38:22.017Z,20.56
2022-09-29T04:40:47.761Z,20.58
2022-09-29T04:43:13.358Z,20.57
2022-09-29T04:45:39.093Z,20.58
2022-09-29T04:48:04.694Z,20.57
2022-09-29T04:50:30.307Z,20.58
2022-09-29T04:52:56.068Z,20.57
2022-09-29T04:55:21.646Z,20.57
2022-09-29T04:57:47.878Z,20.57
2022-09-29T05:00:13.643Z,20.58
2022-09-29T05:02:39.247Z,20.54
2022-09-29T05:05:06.050Z,20.56
2022-09-29T05:07:33.499Z,20.54
2022-09-29T05:09:59.033Z,20.45
2022-09-29T05:12:24.583Z,20.51
2022-09-29T05:14:50.129Z,20.56
2022-09-29T05:17:15.683Z,20.52
2022-09-29T05:19:41.227Z,20.52
2022-09-29T05:22:06.783Z,20.50
2022-09-29T05:24:32.326Z,20.49
2022-09-29T05:26:58.730Z,20.50
2022-09-29T05:29:24.452Z,20.53
2022-09-29T05:31:50.169Z,20.50
2022-09-29T05:34:15.858Z,19.97
2022-09-29T05:36:41.962Z,20.29
2022-09-29T05:39:07.497Z,20.42
2022-09-29T05:41:33.279Z,20.46
2022-09-29T05:44:00.436Z,20.50
2022-09-29T05:46:25.981Z,20.49
2022-09-29T05:48:51.567Z,20.53
2022-09-29T05:51:21.927Z,20.52
2022-09-29T05:53:48.502Z,20.52
2022-09-29T05:56:14.941Z,20.50
2022-09-29T05:58:40.585Z,20.47
2022-09-29T06:01:06.997Z,20.50
2022-09-29T06:03:33.741Z,20.50
2022-09-29T06:06:03.667Z,20.48
2022-09-29T06:08:29.207Z,20.49
2022-09-29T06:10:54.765Z,20.48
2022-09-29T06:13:20.318Z,20.49
2022-09-29T06:15:45.869Z,20.51
2022-09-29T06:18:11.419Z,20.50
2022-09-29T06:20:37.898Z,20.51
2022-09-29T06:23:03.449Z,20.52
2022-09-29T06:25:29.061Z,20.51
2022-09-29T06:27:54.614Z,20.52
2022-09-29T06:30:20.232Z,20.54
2022-09-29T06:32:46.003Z,20.56
2022-09-29T06:35:31.440Z,20.56
2022-09-29T06:37:57.785Z,20.49
2022-09-29T06:40:27.270Z,20.52
2022-09-29T06:42:52.950Z,20.56
2022-09-29T06:45:22.055Z,20.57
2022-09-29T06:47:47.919Z,20.56
2022-09-29T06:50:13.454Z,20.56
2022-09-29T06:52:39.017Z,20.57
2022-09-29T06:55:04.735Z,20.58
2022-09-29T06:57:30.291Z,20.56
2022-09-29T06:59:55.861Z,20.57
2022-09-29T07:02:21.496Z,20.58
2022-09-29T07:04:48.028Z,20.58
2022-09-29T07:07:13.980Z,20.58
2022-09-29T07:09:39.526Z,20.60
2022-09-29T07:12:05.307Z,20.60
2022-09-29T07:14:31.046Z,20.58
2022-09-29T07:16:58.349Z,20.58
2022-09-29T07:19:23.940Z,20.59
2022-09-29T07:21:49.494Z,20.60
2022-09-29T07:24:15.230Z,20.61
2022-09-29T07:26:40.803Z,20.58
2022-09-29T07:29:06.356Z,20.58
2022-09-29T07:31:44.868Z,20.58
2022-09-29T07:34:13.299Z,20.57
2022-09-29T07:36:38.841Z,20.58
2022-09-29T07:39:04.475Z,20.59
2022-09-29T07:41:30.024Z,20.58
2022-09-29T07:43:55.561Z,20.58
2022-09-29T07:46:21.303Z,20.59
2022-09-29T07:48:46.901Z,20.49
2022-09-29T07:51:13.449Z,20.47
2022-09-29T07:53:39.014Z,20.50
2022-09-29T07:56:08.765Z,20.47
2022-09-29T07:58:34.562Z,20.49
2022-09-29T08:01:00.927Z,20.49
2022-09-29T08:03:26.562Z,20.50
2022-09-29T08:05:52.655Z,20.53
2022-09-29T08:08:18.207Z,20.58
2022-09-29T08:10:52.209Z,20.58
2022-09-29T08:13:19.106Z,20.62
2022-09-29T08:15:44.690Z,20.62
2022-09-29T08:18:10.234Z,20.64
2022-09-29T08:20:36.093Z,20.62
2022-09-29T08:23:01.641Z,20.62
2022-09-29T08:25:27.203Z,20.64
2022-09-29T08:27:55.798Z,20.63
2022-09-29T08:30:21.742Z,20.58
2022-09-29T08:32:51.043Z,20.69
2022-09-29T08:35:16.605Z,20.68
2022-09-29T08:37:42.165Z,20.68
2022-09-29T08:40:07.941Z,20.65
2022-09-29T08:42:53.379Z,20.63
2022-09-29T08:45:23.169Z,20.60
2022-09-29T08:47:48.808Z,20.58
2022-09-29T08:50:16.342Z,20.60
2022-09-29T08:52:51.515Z,20.61
2022-09-29T08:57:54.922Z,20.63
2022-09-29T09:00:20.537Z,20.60
2022-09-29T09:03:05.978Z,20.61
2022-09-29T09:05:35.022Z,20.61
2022-09-29T09:08:20.532Z,20.58
2022-09-29T09:10:49.019Z,20.62
2022-09-29T09:15:56.435Z,20.60
2022-09-29T09:18:26.496Z,20.60
2022-09-29T09:20:55.596Z,20.62
2022-09-29T09:23:23.559Z,20.63
2022-09-29T09:26:04.182Z,20.65
2022-09-29T09:28:34.229Z,20.66
2022-09-29T09:31:00.732Z,20.62
2022-09-29T09:33:56.679Z,20.66
2022-09-29T09:36:37.274Z,20.66
2022-09-29T09:39:09.982Z,20.67
2022-09-29T09:41:36.225Z,20.67
2022-09-29T09:44:07.393Z,20.68
2022-09-29T09:46:42.574Z,20.69
2022-09-29T09:49:13.999Z,20.69
2022-09-29T09:54:18.174Z,20.68
2022-09-29T09:56:54.483Z,20.70
2022-09-29T09:59:39.920Z,20.70
2022-09-29T10:02:07.182Z,20.68
2022-09-29T10:04:33.122Z,20.66
2022-09-29T10:06:58.675Z,20.67
2022-09-29T10:09:24.887Z,20.66
2022-09-29T10:11:50.462Z,20.68
2022-09-29T10:14:19.045Z,20.70
2022-09-29T10:17:06.309Z,20.70
2022-09-29T10:19:51.766Z,20.66
2022-09-29T10:22:17.903Z,20.66
2022-09-29T10:24:43.515Z,20.66
2022-09-29T10:27:10.328Z,20.66
2022-09-29T10:29:37.806Z,20.67
2022-09-29T10:32:23.272Z,20.62
2022-09-29T10:34:49.427Z,20.66
2022-09-29T10:37:19.845Z,20.68
2022-09-29T10:39:47.446Z,20.67
2022-09-29T10:42:21.580Z,20.68
2022-09-29T10:44:49.485Z,20.69
2022-09-29T10:47:15.039Z,20.68
2022-09-29T10:49:40.581Z,20.69
2022-09-29T10:52:06.850Z,20.67
2022-09-29T10:54:33.887Z,20.67
2022-09-29T10:56:59.441Z,20.67
2022-09-29T10:59:25.007Z,20.68
2022-09-29T11:01:51.785Z,20.72
2022-09-29T11:04:18.859Z,20.71
2022-09-29T11:06:44.535Z,20.70
2022-09-29T11:11:50.803Z,20.70
2022-09-29T11:14:36.309Z,20.71
2022-09-29T11:17:02.461Z,20.57
2022-09-29T11:19:28.766Z,20.70
2022-09-29T11:22:00.967Z,20.74
2022-09-29T11:24:46.413Z,20.71
2022-09-29T11:27:29.535Z,20.71
2022-09-29T11:30:11.871Z,20.70
2022-09-29T11:32:40.032Z,20.72
2022-09-29T11:37:51.201Z,20.73
2022-09-29T11:40:38.000Z,20.56
2022-09-29T11:43:06.475Z,20.73
2022-09-29T11:45:36.804Z,20.78
2022-09-29T11:48:12.578Z,20.70
2022-09-29T11:53:24.014Z,20.79
2022-09-29T11:55:56.060Z,20.82
2022-09-29T11:58:25.800Z,20.82
2022-09-29T12:01:09.279Z,20.79
2022-09-29T12:03:54.733Z,20.83
2022-09-29T12:06:28.400Z,20.83
2022-09-29T12:09:00.744Z,20.82
2022-09-29T12:12:05.329Z,20.82
2022-09-29T12:14:41.180Z,20.81
2022-09-29T12:17:08.724Z,20.81
2022-09-29T12:19:36.134Z,20.82
2022-09-29T12:22:02.264Z,20.80
2022-09-29T12:24:45.805Z,20.81
2022-09-29T12:27:12.871Z,20.81
2022-09-29T12:29:39.465Z,20.81
2022-09-29T12:32:08.382Z,20.82
2022-09-29T12:34:53.835Z,20.83
2022-09-29T12:37:23.063Z,20.80
2022-09-29T12:39:52.421Z,20.82
2022-09-29T12:45:01.512Z,20.83
2022-09-29T12:50:10.121Z,20.80
2022-09-29T12:52:40.291Z,20.78
2022-09-29T12:55:07.591Z,20.79
2022-09-29T12:57:35.840Z,20.75
2022-09-29T13:00:03.421Z,20.77
2022-09-29T13:02:48.912Z,20.79
2022-09-29T13:05:34.360Z,20.82
2022-09-29T13:08:19.805Z,20.79
2022-09-29T13:10:50.134Z,20.77
2022-09-29T13:13:35.563Z,20.77
2022-09-29T13:16:21.040Z,20.78
2022-09-29T13:19:06.620Z,20.80
2022-09-29T13:24:21.394Z,20.82
2022-09-29T13:27:06.831Z,20.82
2022-09-29T13:29:32.377Z,20.82
2022-09-29T13:31:57.958Z,20.80
2022-09-29T13:34:27.244Z,20.83
2022-09-29T13:36:52.786Z,20.80
2022-09-29T13:39:20.814Z,20.83
2022-09-29T13:41:46.448Z,20.81
2022-09-29T13:46:50.013Z,20.81
2022-09-29T13:49:30.868Z,20.81
2022-09-29T13:54:46.580Z,20.84
2022-09-29T13:57:15.282Z,20.84
2022-09-29T13:59:44.576Z,20.85
2022-09-29T14:02:18.096Z,20.86
2022-09-29T14:04:51.566Z,20.88
2022-09-29T14:07:36.999Z,20.87
2022-09-29T14:10:04.594Z,20.88
2022-09-29T14:12:30.140Z,20.88
2022-09-29T14:14:56.376Z,20.89
2022-09-29T14:17:28.310Z,20.86
2022-09-29T14:19:59.019Z,20.86
2022-09-29T14:22:28.234Z,20.85
2022-09-29T14:24:54.950Z,20.87
2022-09-29T14:27:23.011Z,20.86
2022-09-29T14:29:59.530Z,20.86
2022-09-29T14:32:33.267Z,20.87
2022-09-29T14:35:00.190Z,20.88
2022-09-29T14:37:25.734Z,20.87
2022-09-29T14:40:11.182Z,20.86
2022-09-29T14:42:36.719Z,20.87
2022-09-29T14:45:22.723Z,20.87
2022-09-29T14:48:28.146Z,20.86
2022-09-29T14:51:17.933Z,20.85
2022-09-29T14:53:45.573Z,20.85
2022-09-29T14:56:16.578Z,20.85
2022-09-29T14:59:02.033Z,20.85
2022-09-29T15:01:29.166Z,20.86
2022-09-29T15:03:56.222Z,20.85
2022-09-29T15:06:23.129Z,20.84
2022-09-29T15:08:52.976Z,20.85
2022-09-29T15:11:22.991Z,20.85
2022-09-29T15:13:48.528Z,20.85
2022-09-29T15:16:17.053Z,20.86
2022-09-29T15:19:02.561Z,20.86
2022-09-29T15:24:16.280Z,20.87
2022-09-29T15:26:41.817Z,20.86
2022-09-29T15:29:07.435Z,20.86
2022-09-29T15:31:33.698Z,20.86
2022-09-29T15:33:59.301Z,20.85
2022-09-29T15:36:26.376Z,20.84
2022-09-29T15:38:52.729Z,20.83
2022-09-29T15:41:19.490Z,20.81
2022-09-29T15:43:53.477Z,20.80
2022-09-29T15:46:34.586Z,20.78
2022-09-29T15:51:38.932Z,20.79
2022-09-29T15:54:08.506Z,20.79
2022-09-29T15:56:54.068Z,20.79
2022-09-29T15:59:19.910Z,20.77
2022-09-29T16:01:45.712Z,20.79
2022-09-29T16:04:11.319Z,20.80
2022-09-29T16:06:38.924Z,20.78
2022-09-29T16:09:05.230Z,20.79
2022-09-29T16:11:32.547Z,20.77
2022-09-29T16:14:00.135Z,20.78
2022-09-29T16:16:27.141Z,20.77
2022-09-29T16:18:52.812Z,20.77
2022-09-29T16:21:19.458Z,20.76
2022-09-29T16:23:49.097Z,20.77
2022-09-29T16:26:17.484Z,20.78
2022-09-29T16:29:00.219Z,20.77
2022-09-29T16:31:26.387Z,20.76
2022-09-29T16:33:54.143Z,20.77
2022-09-29T16:36:21.559Z,20.76
2022-09-29T16:38:47.450Z,20.75
2022-09-29T16:41:34.777Z,20.76
2022-09-29T16:44:06.310Z,20.75
2022-09-29T16:46:31.904Z,20.75
2022-09-29T16:48:57.896Z,20.74
2022-09-29T16:51:39.801Z,20.76
2022-09-29T16:54:05.926Z,20.76
2022-09-29T16:56:33.314Z,20.75
2022-09-29T16:59:03.661Z,20.76
2022-09-29T17:01:29.265Z,20.76
2022-09-29T17:03:54.839Z,20.76
2022-09-29T17:06:20.383Z,20.76
2022-09-29T17:08:48.909Z,20.76
2022-09-29T17:11:17.298Z,20.75
2022-09-29T17:13:42.851Z,20.75
2022-09-29T17:16:09.316Z,20.75
2022-09-29T17:18:34.964Z,20.76
2022-09-29T17:21:00.669Z,20.76
2022-09-29T17:23:26.226Z,20.76
2022-09-29T17:25:51.774Z,20.76
2022-09-29T17:28:18.149Z,20.76
2022-09-29T17:30:44.585Z,20.75
2022-09-29T17:33:11.858Z,20.74
2022-09-29T17:35:37.857Z,20.75
2022-09-29T17:38:06.825Z,20.75
2022-09-29T17:40:34.198Z,20.74
2022-09-29T17:43:00.163Z,20.74
2022-09-29T17:45:26.025Z,20.74
2022-09-29T17:47:51.717Z,20.74
2022-09-29T17:50:35.625Z,20.75
2022-09-29T17:53:03.346Z,20.73
2022-09-29T17:55:29.420Z,20.73
2022-09-29T17:57:54.959Z,20.74
2022-09-29T18:00:21.791Z,20.75
2022-09-29T18:02:47.852Z,20.74
2022-09-29T18:05:13.442Z,20.72
2022-09-29T18:07:39.181Z,20.72
2022-09-29T18:10:10.792Z,20.74
2022-09-29T18:12:36.333Z,20.72
2022-09-29T18:15:01.893Z,20.73
2022-09-29T18:17:27.435Z,20.74
2022-09-29T18:19:52.998Z,20.74
2022-09-29T18:22:18.538Z,20.75
2022-09-29T18:24:44.107Z,20.74
2022-09-29T18:27:13.868Z,20.73
2022-09-29T18:29:39.420Z,20.74
2022-09-29T18:32:04.963Z,20.73
2022-09-29T18:34:32.652Z,20.73
2022-09-29T18:36:58.193Z,20.73
2022-09-29T18:39:23.746Z,20.73
2022-09-29T18:41:49.300Z,20.73
2022-09-29T18:44:15.855Z,20.71
2022-09-29T18:46:42.790Z,20.72
2022-09-29T18:49:09.711Z,20.71
2022-09-29T18:51:35.251Z,20.72
2022-09-29T18:54:01.389Z,20.70
2022-09-29T18:56:26.931Z,20.72
2022-09-29T18:58:52.501Z,20.72
2022-09-29T19:01:22.610Z,20.71
2022-09-29T19:03:48.205Z,20.72
2022-09-29T19:06:14.707Z,20.72
2022-09-29T19:08:41.955Z,20.73
2022-09-29T19:11:11.817Z,20.71
2022-09-29T19:13:38.785Z,20.70
2022-09-29T19:16:04.523Z,20.71
2022-09-29T19:18:30.102Z,20.70
2022-09-29T19:20:55.975Z,20.70
2022-09-29T19:23:21.790Z,20.72
2022-09-29T19:25:47.979Z,20.72
2022-09-29T19:28:13.761Z,20.71
2022-09-29T19:30:39.926Z,20.72
2022-09-29T19:33:06.061Z,20.70
2022-09-29T19:35:31.632Z,20.69
2022-09-29T19:37:58.531Z,20.69
2022-09-29T19:40:26.395Z,20.69
2022-09-29T19:42:52.096Z,20.69
2022-09-29T19:45:17.652Z,20.69
2022-09-29T19:47:43.268Z,20.71
2022-09-29T19:50:29.109Z,20.68
2022-09-29T19:52:54.839Z,20.71
2022-09-29T19:55:20.459Z,20.70
2022-09-29T19:57:46.006Z,20.70
2022-09-29T20:00:13.669Z,20.71
2022-09-29T20:02:40.607Z,20.71
2022-09-29T20:05:07.945Z,20.71
2022-09-29T20:07:33.720Z,20.72
2022-09-29T20:10:00.402Z,20.72
2022-09-29T20:12:25.944Z,20.71
2022-09-29T20:14:51.495Z,20.71
2022-09-29T20:17:17.292Z,20.73
2022-09-29T20:19:46.356Z,20.72
2022-09-29T20:22:11.907Z,20.72
2022-09-29T20:24:37.466Z,20.73
2022-09-29T20:27:03.032Z,20.72
2022-09-29T20:29:29.797Z,20.73
2022-09-29T20:31:55.388Z,20.73
2022-09-29T20:34:21.458Z,20.73
2022-09-29T20:36:52.167Z,20.73
2022-09-29T20:39:20.683Z,20.73
2022-09-29T20:41:47.369Z,20.74
2022-09-29T20:44:12.924Z,20.72
2022-09-29T20:46:38.518Z,20.72
2022-09-29T20:49:04.235Z,20.73
2022-09-29T20:51:33.842Z,20.74
2022-09-29T20:54:01.931Z,20.72
2022-09-29T20:56:30.365Z,20.72
2022-09-29T20:58:56.307Z,20.73
2022-09-29T21:01:23.165Z,20.72
2022-09-29T21:03:50.260Z,20.71
2022-09-29T21:06:16.447Z,20.72
2022-09-29T21:08:41.999Z,20.72
2022-09-29T21:11:08.278Z,20.72
2022-09-29T21:13:33.840Z,20.72
2022-09-29T21:15:59.665Z,20.72
2022-09-29T21:18:25.595Z,20.72
2022-09-29T21:20:54.997Z,20.72
2022-09-29T21:23:22.328Z,20.72
2022-09-29T21:25:47.973Z,20.73
2022-09-29T21:28:13.527Z,20.73
2022-09-29T21:30:39.083Z,20.71
2022-09-29T21:33:04.628Z,20.72
2022-09-29T21:35:30.399Z,20.71
2022-09-29T21:37:56.057Z,20.72
2022-09-29T21:40:22.632Z,20.72
2022-09-29T21:42:48.385Z,20.71
2022-09-29T21:45:13.948Z,20.72
2022-09-29T21:47:59.385Z,20.71
2022-09-29T21:50:24.959Z,20.71
2022-09-29T21:52:50.499Z,20.70
2022-09-29T21:55:16.430Z,20.71
2022-09-29T21:57:41.976Z,20.71
2022-09-29T22:00:07.730Z,20.71
2022-09-29T22:02:33.349Z,20.71
2022-09-29T22:04:58.984Z,20.70
2022-09-29T22:07:24.534Z,20.70
2022-09-29T22:09:50.088Z,20.70
2022-09-29T22:12:15.796Z,20.70
2022-09-29T22:14:43.185Z,20.70
2022-09-29T22:17:11.720Z,20.70
2022-09-29T22:19:37.641Z,20.70
2022-09-29T22:22:03.376Z,20.70
2022-09-29T22:24:28.928Z,20.70
2022-09-29T22:26:54.486Z,20.69
2022-09-29T22:29:20.201Z,20.69
2022-09-29T22:31:46.431Z,20.70
2022-09-29T22:34:12.033Z,20.70
2022-09-29T22:36:37.663Z,20.70
2022-09-29T22:39:03.453Z,20.69
2022-09-29T22:41:29.015Z,20.69
2022-09-29T22:43:54.907Z,20.69
2022-09-29T22:46:21.089Z,20.68
2022-09-29T22:48:46.674Z,20.69
2022-09-29T22:51:12.315Z,20.68
2022-09-29T22:53:37.866Z,20.70
2022-09-29T22:56:12.091Z,20.69
2022-09-29T22:58:38.100Z,20.68
2022-09-29T23:01:05.762Z,20.68
2022-09-29T23:03:31.431Z,20.69
2022-09-29T23:05:58.445Z,20.68
2022-09-29T23:08:25.059Z,20.68
2022-09-29T23:10:50.976Z,20.69
2022-09-29T23:13:20.538Z,20.69
2022-09-29T23:15:46.336Z,20.68
2022-09-29T23:18:12.257Z,20.68
2022-09-29T23:20:37.798Z,20.68
2022-09-29T23:23:03.341Z,20.67
2022-09-29T23:25:30.293Z,20.67
2022-09-29T23:27:55.851Z,20.68
2022-09-29T23:30:21.385Z,20.68
2022-09-29T23:32:46.940Z,20.68
2022-09-29T23:35:12.487Z,20.68
2022-09-29T23:37:57.940Z,20.68
2022-09-29T23:40:23.695Z,20.67
2022-09-29T23:42:49.346Z,20.68
2022-09-29T23:45:14.885Z,20.67
2022-09-29T23:47:40.545Z,20.67
2022-09-29T23:50:06.141Z,20.67
2022-09-29T23:52:31.715Z,20.67
2022-09-29T23:54:57.262Z,20.67
2022-09-29T23:57:23.718Z,20.66
2022-09-29T23:59:49.253Z,20.67
